Time;durP1;ratioP1;P1;durP2;ratioP2;P2;SDS_P1;SDS_P2;PMS_P1;PMS_P2;Temp;Humidity;BMP_temperature;BMP_pressure;BME280_temperature;BME280_humidity;BME280_pressure;Samples;Min_cycle;Max_cycle;Signal;HPM_P1;HPM_P2
2022/07/30 00:01:38;;;;;;;4.40;3.10;;;17.80;99.90;;;;;;5049397;28;20249;-77
2022/07/30 00:04:23;;;;;;;5.00;3.63;;;17.80;99.90;;;;;;5046252;28;20257;-78
2022/07/30 00:07:08;;;;;;;4.47;3.80;;;17.80;99.90;;;;;;5040398;28;20716;-77
2022/07/30 00:09:52;;;;;;;5.53;3.80;;;17.70;99.90;;;;;;5042475;28;20260;-76
2022/07/30 00:12:38;;;;;;;4.30;3.73;;;17.70;99.90;;;;;;5047175;28;20179;-80
2022/07/30 00:15:23;;;;;;;7.13;4.03;;;17.70;99.90;;;;;;5050851;28;20197;-77
2022/07/30 00:18:07;;;;;;;8.13;3.77;;;17.60;99.90;;;;;;5040460;28;20394;-76
2022/07/30 00:20:51;;;;;;;5.13;3.40;;;17.60;99.90;;;;;;5041588;28;20687;-77
2022/07/30 00:23:35;;;;;;;4.80;3.53;;;17.60;99.90;;;;;;5034917;28;20199;-76
2022/07/30 00:26:19;;;;;;;7.10;4.50;;;17.60;99.90;;;;;;5041856;28;20221;-76
2022/07/30 00:29:04;;;;;;;6.23;4.57;;;17.50;99.90;;;;;;5044012;28;20207;-77
2022/07/30 00:31:48;;;;;;;4.77;3.43;;;17.50;99.90;;;;;;5040139;28;20198;-77
2022/07/30 00:34:32;;;;;;;8.97;4.13;;;17.40;99.90;;;;;;5045426;28;20230;-76
2022/07/30 00:37:16;;;;;;;7.17;4.60;;;17.40;99.90;;;;;;5036482;28;20202;-77
2022/07/30 00:40:00;;;;;;;6.97;4.60;;;17.30;99.90;;;;;;5035354;28;20273;-77
2022/07/30 00:42:46;;;;;;;5.13;4.53;;;17.30;99.90;;;;;;5051391;28;20715;-77
2022/07/30 00:45:31;;;;;;;6.53;4.43;;;17.30;99.90;;;;;;5046333;28;20302;-76
2022/07/30 00:48:15;;;;;;;6.70;4.57;;;17.30;99.90;;;;;;5034586;28;20310;-77
2022/07/30 00:50:59;;;;;;;6.00;4.50;;;17.20;99.90;;;;;;5053092;28;20342;-77
2022/07/30 00:53:43;;;;;;;5.00;4.43;;;17.20;99.90;;;;;;5046192;28;20278;-76
2022/07/30 00:56:27;;;;;;;8.17;5.30;;;17.10;99.90;;;;;;5045189;28;20662;-76
2022/07/30 00:59:11;;;;;;;8.17;4.97;;;17.10;99.90;;;;;;5038981;28;20747;-77
2022/07/30 01:01:55;;;;;;;5.30;4.60;;;17.10;99.90;;;;;;5035075;28;20218;-76
2022/07/30 01:04:39;;;;;;;7.97;4.83;;;17.10;99.90;;;;;;5048909;28;20222;-77
2022/07/30 01:07:23;;;;;;;5.13;4.50;;;17.00;99.90;;;;;;5042274;28;20201;-77
2022/07/30 01:10:10;;;;;;;6.87;5.13;;;17.00;99.90;;;;;;5042990;28;20194;-77
2022/07/30 01:12:57;;;;;;;13.73;5.33;;;17.00;99.90;;;;;;5045629;28;20226;-76
2022/07/30 01:15:42;;;;;;;7.40;4.90;;;17.00;99.90;;;;;;5036610;28;20318;-77
2022/07/30 01:19:47;;;;;;;9.43;5.03;;;16.90;99.90;;;;;;5037838;28;20252;-77
2022/07/30 01:21:40;;;;;;;6.70;4.90;;;16.90;99.90;;;;;;5042449;28;20214;-77
2022/07/30 01:24:37;;;;;;;7.60;5.80;;;16.90;99.90;;;;;;5041183;28;20221;-76
2022/07/30 01:27:22;;;;;;;5.10;4.60;;;16.90;99.90;;;;;;5042389;28;20187;-77
2022/07/30 01:30:07;;;;;;;6.97;5.40;;;16.80;99.90;;;;;;5041186;28;20195;-77
2022/07/30 01:32:53;;;;;;;7.83;5.63;;;16.80;99.90;;;;;;5042966;28;20191;-77
2022/07/30 01:35:40;;;;;;;6.67;5.93;;;16.70;99.90;;;;;;5041012;28;20207;-77
2022/07/30 01:38:27;;;;;;;10.90;5.20;;;16.70;99.90;;;;;;5033674;28;20223;-77
2022/07/30 01:41:13;;;;;;;6.97;5.23;;;16.70;99.90;;;;;;5038272;28;20184;-76
2022/07/30 01:43:59;;;;;;;6.33;5.73;;;16.70;99.90;;;;;;5040590;28;20194;-77
2022/07/30 01:46:43;;;;;;;6.40;5.80;;;16.70;99.90;;;;;;5035635;28;20210;-77
2022/07/30 01:49:29;;;;;;;6.73;5.70;;;16.60;99.90;;;;;;5042110;28;20231;-77
2022/07/30 01:52:15;;;;;;;7.37;6.60;;;16.60;99.90;;;;;;5040573;28;20180;-77
2022/07/30 01:55:01;;;;;;;7.10;6.40;;;16.60;99.90;;;;;;5039175;28;20310;-76
2022/07/30 01:57:47;;;;;;;9.23;6.47;;;16.50;99.90;;;;;;5030229;28;20199;-76
2022/07/30 02:00:36;;;;;;;7.50;6.17;;;16.50;99.90;;;;;;5042835;28;20194;-76
2022/07/30 02:03:21;;;;;;;7.07;6.00;;;16.50;99.90;;;;;;5044047;28;20218;-78
2022/07/30 02:06:34;;;;;;;6.47;5.87;;;16.50;99.90;;;;;;5037536;28;20209;-76
2022/07/30 02:09:25;;;;;;;6.60;5.90;;;16.40;99.90;;;;;;5051263;28;20226;-77
2022/07/30 02:12:30;;;;;;;9.37;6.80;;;16.40;99.90;;;;;;5040134;28;20198;-76
2022/07/30 02:15:26;;;;;;;10.30;6.70;;;16.40;99.90;;;;;;5052466;28;20194;-77
2022/07/30 02:18:37;;;;;;;7.73;6.50;;;16.40;99.90;;;;;;5040913;28;20345;-76
2022/07/30 02:21:24;;;;;;;10.20;6.70;;;16.30;99.90;;;;;;5039149;28;20230;-77
2022/07/30 02:24:13;;;;;;;7.90;6.53;;;16.30;99.90;;;;;;5047014;28;20237;-76
2022/07/30 02:27:06;;;;;;;7.37;6.63;;;16.30;99.90;;;;;;5035283;28;20677;-76
2022/07/30 02:29:53;;;;;;;7.60;6.90;;;16.20;99.90;;;;;;5038499;28;20222;-76
2022/07/30 02:32:41;;;;;;;7.73;6.80;;;16.20;99.90;;;;;;5041134;28;20191;-76
2022/07/30 02:35:28;;;;;;;6.50;5.90;;;16.20;99.90;;;;;;5032116;28;20623;-76
2022/07/30 02:38:13;;;;;;;7.23;6.50;;;16.20;99.90;;;;;;5043058;28;20286;-76
2022/07/30 02:40:59;;;;;;;8.17;6.23;;;16.20;99.90;;;;;;5041505;28;20274;-76
2022/07/30 02:43:44;;;;;;;10.23;6.80;;;16.20;99.90;;;;;;5034307;28;20321;-76
2022/07/30 02:46:31;;;;;;;7.63;6.33;;;16.10;99.90;;;;;;5046840;28;20202;-77
2022/07/30 02:49:18;;;;;;;8.33;6.30;;;16.10;99.90;;;;;;5037902;28;20215;-77
2022/07/30 02:52:04;;;;;;;7.90;6.40;;;16.00;99.90;;;;;;5038448;28;20620;-76
2022/07/30 02:54:50;;;;;;;6.80;6.10;;;16.00;99.90;;;;;;5043798;28;20709;-76
2022/07/30 02:57:36;;;;;;;7.80;6.63;;;16.00;99.90;;;;;;5031497;28;20191;-77
2022/07/30 03:00:22;;;;;;;9.67;7.13;;;15.90;99.90;;;;;;5035586;28;20203;-78
2022/07/30 03:03:09;;;;;;;15.87;9.03;;;15.80;99.90;;;;;;5040879;28;20214;-76
2022/07/30 03:05:54;;;;;;;10.87;7.20;;;15.80;99.90;;;;;;5041758;28;20257;-76
2022/07/30 03:08:40;;;;;;;8.37;7.27;;;15.70;99.90;;;;;;5043318;28;20206;-77
2022/07/30 03:11:26;;;;;;;7.80;6.83;;;15.60;99.90;;;;;;5033256;28;20250;-77
2022/07/30 03:14:11;;;;;;;9.53;6.97;;;15.60;99.90;;;;;;5042865;28;20183;-77
2022/07/30 03:16:58;;;;;;;7.90;7.10;;;15.50;99.90;;;;;;5049017;28;20191;-76
2022/07/30 03:19:46;;;;;;;9.73;7.47;;;15.50;99.90;;;;;;5045627;28;20238;-77
2022/07/30 03:22:34;;;;;;;9.60;7.30;;;15.40;99.90;;;;;;5044613;28;20184;-78
2022/07/30 03:25:23;;;;;;;8.93;8.00;;;15.40;99.90;;;;;;5037540;28;20226;-76
2022/07/30 03:28:07;;;;;;;8.40;7.50;;;15.50;99.90;;;;;;5051193;28;20210;-77
2022/07/30 03:30:52;;;;;;;10.80;8.07;;;15.40;99.90;;;;;;5046251;28;20220;-76
2022/07/30 03:33:37;;;;;;;8.00;7.03;;;15.40;99.90;;;;;;5052821;28;20210;-77
2022/07/30 03:36:22;;;;;;;8.27;7.30;;;15.30;99.90;;;;;;5041150;28;20200;-76
2022/07/30 03:39:07;;;;;;;8.37;7.50;;;15.30;99.90;;;;;;5045504;28;20268;-76
2022/07/30 03:41:53;;;;;;;9.47;7.87;;;15.20;99.90;;;;;;5042230;28;20249;-76
2022/07/30 03:44:38;;;;;;;9.13;7.40;;;15.20;99.90;;;;;;5043112;28;20238;-76
2022/07/30 03:47:23;;;;;;;8.83;7.40;;;15.20;99.90;;;;;;5045367;28;20194;-77
2022/07/30 03:50:09;;;;;;;8.40;7.23;;;15.20;99.90;;;;;;5045861;28;20194;-77
2022/07/30 03:52:53;;;;;;;12.03;7.77;;;15.20;99.90;;;;;;5041262;28;20242;-77
2022/07/30 03:55:38;;;;;;;7.33;6.63;;;15.20;99.90;;;;;;5044745;28;20179;-77
2022/07/30 03:58:22;;;;;;;10.13;7.70;;;15.20;99.90;;;;;;5041639;28;20237;-77
2022/07/30 04:01:06;;;;;;;8.10;6.43;;;15.20;99.90;;;;;;5049403;28;20210;-77
2022/07/30 04:03:50;;;;;;;13.33;7.67;;;15.20;99.90;;;;;;5049086;28;20234;-79
2022/07/30 04:06:41;;;;;;;9.07;7.57;;;15.10;99.90;;;;;;5043008;28;20205;-78
2022/07/30 04:09:25;;;;;;;8.27;7.37;;;15.10;99.90;;;;;;5043735;28;20242;-78
2022/07/30 04:12:12;;;;;;;10.43;7.73;;;15.10;99.90;;;;;;5045959;28;20194;-78
2022/07/30 04:14:56;;;;;;;11.47;8.07;;;15.10;99.90;;;;;;5043566;28;20258;-77
2022/07/30 04:17:45;;;;;;;10.43;8.20;;;15.00;99.90;;;;;;5039931;28;20318;-78
2022/07/30 04:20:35;;;;;;;9.43;8.10;;;15.00;99.90;;;;;;5044930;28;20190;-78
2022/07/30 04:23:21;;;;;;;13.17;8.23;;;15.00;99.90;;;;;;5038543;28;20190;-77
2022/07/30 04:26:06;;;;;;;9.77;7.50;;;15.00;99.90;;;;;;5039787;28;20206;-78
2022/07/30 04:28:50;;;;;;;9.07;8.07;;;15.00;99.90;;;;;;5045124;28;20252;-77
2022/07/30 04:31:35;;;;;;;11.23;8.60;;;15.00;99.90;;;;;;5047954;28;20186;-78
2022/07/30 04:34:19;;;;;;;12.87;8.53;;;14.90;99.90;;;;;;5036601;28;20202;-78
2022/07/30 04:37:04;;;;;;;10.82;9.77;;;14.90;99.90;;;;;;5036678;28;20492;-78
2022/07/30 04:39:50;;;;;;;9.37;8.17;;;15.00;99.90;;;;;;5040374;28;20214;-79
2022/07/30 04:42:34;;;;;;;12.63;8.33;;;14.90;99.90;;;;;;5046998;28;20661;-75
2022/07/30 04:45:21;;;;;;;12.03;8.27;;;14.90;99.90;;;;;;5036798;28;20226;-76
2022/07/30 04:48:06;;;;;;;10.30;8.67;;;14.90;99.90;;;;;;5045700;28;20227;-76
2022/07/30 04:50:56;;;;;;;10.83;9.17;;;14.90;99.90;;;;;;5038516;28;20191;-76
2022/07/30 04:53:42;;;;;;;10.03;9.07;;;14.90;99.90;;;;;;5038442;28;20194;-77
2022/07/30 04:56:27;;;;;;;12.17;10.27;;;14.90;99.90;;;;;;5043498;28;20199;-76
2022/07/30 04:59:12;;;;;;;12.20;10.27;;;14.90;99.90;;;;;;5043865;28;20214;-76
2022/07/30 05:01:58;;;;;;;14.90;10.70;;;14.90;99.90;;;;;;5047167;28;20230;-76
2022/07/30 05:04:43;;;;;;;15.13;11.10;;;14.90;99.90;;;;;;5047441;28;20272;-77
2022/07/30 05:07:28;;;;;;;13.13;11.77;;;14.90;99.90;;;;;;5034764;28;20187;-77
2022/07/30 05:10:13;;;;;;;12.07;10.90;;;14.90;99.90;;;;;;5036809;28;20182;-78
2022/07/30 05:12:57;;;;;;;17.50;12.30;;;14.90;99.90;;;;;;5031443;28;20235;-78
2022/07/30 05:15:45;;;;;;;14.03;11.90;;;14.90;99.90;;;;;;5036950;28;20194;-78
2022/07/30 05:18:30;;;;;;;15.90;12.70;;;14.90;99.90;;;;;;5045509;28;20210;-78
2022/07/30 05:21:14;;;;;;;16.00;12.93;;;14.90;99.90;;;;;;5046895;28;20550;-78
2022/07/30 05:23:58;;;;;;;21.90;13.93;;;15.00;99.90;;;;;;5050319;28;20195;-77
2022/07/30 05:26:42;;;;;;;18.73;14.30;;;15.00;99.90;;;;;;5047291;28;20186;-78
2022/07/30 05:29:26;;;;;;;17.20;15.13;;;15.00;99.90;;;;;;5040965;28;20207;-78
2022/07/30 05:32:10;;;;;;;19.17;16.50;;;15.10;99.90;;;;;;5049641;28;20278;-79
2022/07/30 05:34:57;;;;;;;19.20;16.63;;;15.10;99.90;;;;;;5043086;28;20559;-76
2022/07/30 05:37:42;;;;;;;24.87;17.90;;;15.10;99.90;;;;;;5038882;28;20279;-76
2022/07/30 05:40:26;;;;;;;19.23;17.17;;;15.20;99.90;;;;;;5045982;28;20266;-75
2022/07/30 05:43:10;;;;;;;24.30;21.90;;;15.20;99.90;;;;;;5037345;28;20416;-73
2022/07/30 05:45:54;;;;;;;21.53;19.40;;;15.40;99.90;;;;;;5045892;28;20211;-75
2022/07/30 05:48:38;;;;;;;22.80;18.50;;;15.40;99.90;;;;;;5039129;28;20214;-75
2022/07/30 05:51:22;;;;;;;21.33;18.63;;;15.50;99.90;;;;;;5039882;28;20225;-74
2022/07/30 05:54:07;;;;;;;21.33;19.13;;;15.50;99.90;;;;;;5038168;28;20195;-75
2022/07/30 05:56:51;;;;;;;20.03;18.07;;;15.60;99.90;;;;;;5042311;28;20186;-75
2022/07/30 05:59:36;;;;;;;21.03;18.83;;;15.60;99.90;;;;;;5031090;28;20337;-76
2022/07/30 06:02:20;;;;;;;21.13;18.87;;;15.70;99.90;;;;;;5037657;28;20230;-76
2022/07/30 06:05:04;;;;;;;20.60;18.53;;;15.80;99.90;;;;;;5043207;28;20310;-76
2022/07/30 06:07:50;;;;;;;20.77;17.93;;;15.90;99.90;;;;;;5026086;28;20206;-77
2022/07/30 06:10:34;;;;;;;24.67;17.83;;;15.90;99.90;;;;;;5047368;28;20174;-76
2022/07/30 06:13:18;;;;;;;21.67;18.37;;;16.00;99.90;;;;;;5033326;28;20186;-76
2022/07/30 06:16:02;;;;;;;23.77;18.53;;;16.10;99.90;;;;;;5038281;28;20233;-76
2022/07/30 06:18:46;;;;;;;19.37;17.13;;;16.10;99.90;;;;;;5037783;28;20254;-76
2022/07/30 06:21:31;;;;;;;23.17;17.83;;;16.20;99.90;;;;;;5038163;28;20223;-76
2022/07/30 06:24:15;;;;;;;20.10;17.57;;;16.20;99.90;;;;;;5045250;28;20233;-76
2022/07/30 06:26:59;;;;;;;23.87;17.53;;;16.30;99.90;;;;;;5043510;28;20230;-76
2022/07/30 06:29:43;;;;;;;24.33;18.17;;;16.40;99.90;;;;;;5035042;28;20211;-76
2022/07/30 06:32:27;;;;;;;21.63;17.50;;;16.40;99.90;;;;;;5045193;28;20179;-77
2022/07/30 06:35:11;;;;;;;18.73;16.00;;;16.50;99.90;;;;;;5040239;28;20187;-76
2022/07/30 06:37:55;;;;;;;21.77;15.30;;;16.60;99.90;;;;;;5043508;28;20311;-75
2022/07/30 06:40:40;;;;;;;20.63;15.73;;;16.80;99.90;;;;;;5035170;28;20198;-76
2022/07/30 06:43:24;;;;;;;16.33;13.93;;;16.80;99.90;;;;;;5041362;28;20186;-77
2022/07/30 06:46:08;;;;;;;16.90;15.20;;;16.90;99.90;;;;;;5042283;28;20284;-76
2022/07/30 06:48:52;;;;;;;19.07;13.77;;;17.00;99.90;;;;;;5041452;28;20229;-76
2022/07/30 06:51:36;;;;;;;19.43;14.43;;;17.00;99.90;;;;;;5043774;28;20237;-76
2022/07/30 06:54:20;;;;;;;16.27;13.83;;;17.10;99.90;;;;;;5041424;28;20197;-76
2022/07/30 06:57:04;;;;;;;19.53;14.37;;;17.20;99.90;;;;;;5043902;28;20195;-76
2022/07/30 06:59:49;;;;;;;16.70;13.97;;;17.30;99.90;;;;;;5041836;28;20294;-76
2022/07/30 07:02:36;;;;;;;23.90;14.13;;;17.30;99.90;;;;;;5040641;28;20789;-80
2022/07/30 07:05:21;;;;;;;19.27;14.03;;;17.40;99.90;;;;;;5041183;28;20217;-77
2022/07/30 07:08:05;;;;;;;15.43;13.30;;;17.50;99.90;;;;;;5042378;28;20222;-75
2022/07/30 07:10:49;;;;;;;19.03;15.17;;;17.50;99.90;;;;;;5037251;28;20246;-75
2022/07/30 07:13:33;;;;;;;19.67;15.33;;;17.60;99.90;;;;;;5037659;28;20184;-75
2022/07/30 07:16:20;;;;;;;15.90;13.30;;;17.70;99.90;;;;;;5037489;28;20238;-74
2022/07/30 07:19:05;;;;;;;18.57;13.73;;;17.80;99.90;;;;;;5042191;28;20238;-76
2022/07/30 07:21:49;;;;;;;18.63;13.57;;;17.90;99.90;;;;;;5042233;28;20209;-76
2022/07/30 07:24:33;;;;;;;17.97;13.63;;;18.10;99.90;;;;;;5039263;28;20250;-77
2022/07/30 07:27:17;;;;;;;17.20;13.43;;;18.20;99.90;;;;;;5039479;28;20261;-76
2022/07/30 07:30:01;;;;;;;16.60;12.93;;;18.40;99.90;;;;;;5032523;28;20215;-77
2022/07/30 07:32:45;;;;;;;17.53;13.57;;;18.50;99.90;;;;;;5042766;28;20203;-76
2022/07/30 07:35:29;;;;;;;14.40;12.47;;;18.50;99.90;;;;;;5044703;28;20210;-77
2022/07/30 07:38:13;;;;;;;15.60;12.93;;;18.60;99.90;;;;;;5046868;28;20206;-76
2022/07/30 07:40:57;;;;;;;16.07;13.13;;;18.70;99.90;;;;;;5047699;28;20217;-77
2022/07/30 07:43:41;;;;;;;14.27;12.43;;;18.90;99.90;;;;;;5043586;28;20199;-76
2022/07/30 07:46:25;;;;;;;17.42;12.13;;;19.00;99.90;;;;;;5046035;28;20211;-77
2022/07/30 07:49:09;;;;;;;17.85;12.15;;;19.10;99.90;;;;;;5039166;28;20276;-76
2022/07/30 07:51:53;;;;;;;14.55;12.07;;;19.20;99.90;;;;;;5043556;28;20716;-76
2022/07/30 07:54:37;;;;;;;18.90;11.13;;;19.30;99.90;;;;;;5047968;28;20589;-77
2022/07/30 07:57:21;;;;;;;11.48;10.38;;;19.30;99.90;;;;;;5041115;28;20269;-77
2022/07/30 08:00:08;;;;;;;13.13;9.75;;;19.40;99.90;;;;;;5044014;28;20198;-77
2022/07/30 08:02:52;;;;;;;14.60;11.05;;;19.50;99.90;;;;;;5041954;28;20209;-76
2022/07/30 08:05:36;;;;;;;14.10;9.35;;;19.60;99.90;;;;;;5044625;28;20218;-76
2022/07/30 08:08:20;;;;;;;13.45;9.60;;;19.70;99.90;;;;;;5043863;28;20298;-77
2022/07/30 08:11:06;;;;;;;12.82;10.23;;;19.80;99.90;;;;;;5034783;28;20192;-77
2022/07/30 08:13:50;;;;;;;16.05;9.40;;;19.90;99.90;;;;;;5042465;28;20655;-77
2022/07/30 08:16:34;;;;;;;12.35;9.02;;;20.00;99.90;;;;;;5042108;28;20338;-76
2022/07/30 08:19:18;;;;;;;12.90;8.43;;;20.10;99.90;;;;;;5039279;28;20833;-78
2022/07/30 08:22:02;;;;;;;11.60;8.52;;;20.20;99.90;;;;;;5045937;28;20279;-77
2022/07/30 08:24:46;;;;;;;10.80;8.05;;;20.30;99.90;;;;;;5043823;28;20596;-77
2022/07/30 08:27:30;;;;;;;10.73;8.43;;;20.30;99.90;;;;;;5048402;28;20266;-77
2022/07/30 08:30:14;;;;;;;13.90;7.88;;;20.40;99.90;;;;;;5040389;28;20199;-77
2022/07/30 08:32:58;;;;;;;9.02;7.45;;;20.40;99.90;;;;;;5059369;28;20300;-77
2022/07/30 08:35:42;;;;;;;15.77;8.38;;;20.40;99.90;;;;;;5038495;28;20263;-77
2022/07/30 08:38:26;;;;;;;15.15;7.60;;;20.50;99.90;;;;;;5041295;28;20600;-76
2022/07/30 08:41:11;;;;;;;8.80;7.53;;;20.50;99.90;;;;;;5039177;28;20186;-77
2022/07/30 08:44:00;;;;;;;10.57;8.05;;;20.50;99.90;;;;;;5047914;28;20197;-77
2022/07/30 08:46:46;;;;;;;11.25;7.70;;;20.70;99.90;;;;;;5046366;28;20202;-77
2022/07/30 08:49:30;;;;;;;11.05;8.35;;;20.70;99.90;;;;;;5034615;28;20222;-77
2022/07/30 08:52:15;;;;;;;8.52;6.18;;;20.80;99.90;;;;;;5048708;28;20315;-77
2022/07/30 08:55:00;;;;;;;8.95;7.50;;;20.90;99.90;;;;;;5051758;28;20218;-77
2022/07/30 08:57:44;;;;;;;9.73;6.82;;;21.00;99.90;;;;;;5046088;28;20224;-77
2022/07/30 09:00:30;;;;;;;13.40;7.03;;;21.10;99.90;;;;;;5038847;28;20657;-77
2022/07/30 09:03:14;;;;;;;12.82;7.25;;;21.20;99.90;;;;;;5050163;28;20272;-77
2022/07/30 09:06:00;;;;;;;11.52;7.20;;;21.20;99.90;;;;;;5039642;28;20233;-77
2022/07/30 09:08:44;;;;;;;12.90;7.88;;;21.30;99.90;;;;;;5039196;28;20234;-76
2022/07/30 09:11:32;;;;;;;13.05;7.20;;;21.30;99.90;;;;;;5042471;28;20258;-77
2022/07/30 09:14:16;;;;;;;12.93;7.60;;;21.40;99.90;;;;;;5036127;28;20222;-77
2022/07/30 09:17:00;;;;;;;10.25;6.90;;;21.40;99.90;;;;;;5040612;28;20218;-76
2022/07/30 09:20:02;;;;;;;7.18;5.88;;;21.50;99.90;;;;;;5047534;28;20214;-77
2022/07/30 09:22:49;;;;;;;9.30;6.13;;;21.50;99.90;;;;;;5050553;28;20676;-77
2022/07/30 09:25:40;;;;;;;9.95;6.43;;;21.60;99.90;;;;;;5042522;28;20314;-77
2022/07/30 09:28:30;;;;;;;7.22;5.53;;;21.70;99.90;;;;;;5041552;28;20214;-76
2022/07/30 09:31:15;;;;;;;9.05;6.10;;;21.90;99.90;;;;;;5043152;28;20283;-77
2022/07/30 09:33:59;;;;;;;12.63;5.90;;;21.90;99.90;;;;;;5048544;28;20214;-77
2022/07/30 09:36:43;;;;;;;9.57;5.72;;;21.90;99.90;;;;;;5036675;28;20262;-76
2022/07/30 09:39:39;;;;;;;9.13;5.25;;;21.90;99.90;;;;;;5041062;28;20211;-77
2022/07/30 09:42:26;;;;;;;11.52;5.88;;;22.00;99.90;;;;;;5035198;28;20258;-77
2022/07/30 09:45:13;;;;;;;12.77;5.00;;;22.00;99.90;;;;;;5040097;28;20218;-77
2022/07/30 09:47:58;;;;;;;7.38;4.40;;;22.10;99.90;;;;;;5029876;28;20218;-76
2022/07/30 09:50:48;;;;;;;10.65;4.70;;;22.20;99.90;;;;;;5045057;28;20222;-78
2022/07/30 09:53:33;;;;;;;12.13;4.32;;;22.30;99.90;;;;;;5034177;28;20190;-76
2022/07/30 09:56:25;;;;;;;9.60;4.60;;;22.20;99.90;;;;;;5038786;28;20270;-77
2022/07/30 09:59:30;;;;;;;9.38;4.70;;;22.20;99.90;;;;;;5038177;28;20238;-76
2022/07/30 10:02:14;;;;;;;7.28;4.20;;;22.30;99.90;;;;;;5037555;28;20253;-76
2022/07/30 10:05:13;;;;;;;8.60;4.57;;;22.40;99.90;;;;;;5038293;28;20261;-78
2022/07/30 10:08:01;;;;;;;5.57;3.28;;;22.50;99.90;;;;;;5042537;28;20706;-78
2022/07/30 10:10:46;;;;;;;9.07;3.80;;;22.50;99.90;;;;;;5038129;28;20699;-77
2022/07/30 10:13:32;;;;;;;8.02;3.10;;;22.70;99.90;;;;;;5033779;28;20295;-76
2022/07/30 10:16:16;;;;;;;11.77;3.72;;;22.70;99.90;;;;;;5037043;28;20206;-76
2022/07/30 10:19:01;;;;;;;5.47;3.03;;;22.70;99.90;;;;;;5030664;28;20250;-77
2022/07/30 10:21:49;;;;;;;5.85;3.38;;;22.70;99.90;;;;;;5036114;28;20699;-76
2022/07/30 10:24:35;;;;;;;3.33;3.03;;;22.80;99.90;;;;;;5035613;28;20803;-78
2022/07/30 10:27:21;;;;;;;7.32;3.42;;;22.80;99.90;;;;;;5040018;28;20297;-77
2022/07/30 10:30:06;;;;;;;6.22;2.80;;;22.90;99.90;;;;;;5034337;28;20297;-76
2022/07/30 10:32:51;;;;;;;5.35;2.88;;;22.90;99.90;;;;;;5043123;28;20244;-76
2022/07/30 10:35:35;;;;;;;6.47;3.25;;;23.00;99.90;;;;;;5044197;28;20198;-76
2022/07/30 10:38:31;;;;;;;5.60;3.00;;;23.00;99.90;;;;;;5041050;28;20222;-78
2022/07/30 10:41:24;;;;;;;8.48;3.30;;;23.10;99.90;;;;;;5042400;28;20267;-77
2022/07/30 10:44:40;;;;;;;6.07;2.70;;;23.10;99.90;;;;;;5041234;28;20190;-77
2022/07/30 10:47:25;;;;;;;3.92;2.42;;;23.00;99.90;;;;;;5020136;28;20267;-76
2022/07/30 10:50:18;;;;;;;7.18;2.67;;;23.00;99.90;;;;;;5039049;28;20619;-76
2022/07/30 10:53:02;;;;;;;9.00;2.88;;;23.10;99.90;;;;;;5041198;28;20203;-77
2022/07/30 10:56:11;;;;;;;3.45;2.42;;;23.20;99.90;;;;;;5038244;28;20257;-77
2022/07/30 10:58:59;;;;;;;4.25;2.53;;;23.20;99.90;;;;;;5038311;28;20210;-76
2022/07/30 11:01:46;;;;;;;6.13;2.63;;;23.40;99.90;;;;;;5043900;28;20206;-77
2022/07/30 11:04:30;;;;;;;9.32;2.63;;;23.40;99.90;;;;;;5041915;28;20202;-76
2022/07/30 11:07:21;;;;;;;4.40;2.10;;;23.50;99.90;;;;;;5036907;28;20242;-77
2022/07/30 11:10:05;;;;;;;7.00;2.38;;;23.60;99.90;;;;;;5044208;28;20218;-77
2022/07/30 11:12:54;;;;;;;6.53;2.40;;;23.70;99.90;;;;;;5042563;28;20195;-76
2022/07/30 11:15:58;;;;;;;4.78;2.20;;;23.80;99.90;;;;;;5038535;28;20218;-77
2022/07/30 11:19:12;;;;;;;3.85;2.40;;;23.90;99.90;;;;;;5038339;28;20214;-77
2022/07/30 11:22:30;;;;;;;4.50;2.25;;;23.80;99.90;;;;;;5042429;28;20190;-77
2022/07/30 11:25:20;;;;;;;5.45;2.05;;;23.80;99.90;;;;;;5047144;28;20237;-78
2022/07/30 11:28:05;;;;;;;7.00;2.28;;;23.90;99.90;;;;;;5034261;28;20623;-77
2022/07/30 11:30:50;;;;;;;4.93;1.90;;;23.90;99.90;;;;;;5036101;28;20293;-76
2022/07/30 11:33:35;;;;;;;4.05;2.30;;;23.90;99.90;;;;;;5030090;28;20222;-76
2022/07/30 11:36:19;;;;;;;5.90;2.60;;;23.90;99.90;;;;;;5038972;28;20229;-76
2022/07/30 11:39:03;;;;;;;3.00;2.15;;;23.90;99.90;;;;;;5039135;28;20254;-76
2022/07/30 11:42:23;;;;;;;2.85;2.00;;;23.90;99.90;;;;;;5040521;28;20199;-77
2022/07/30 11:45:17;;;;;;;4.53;2.45;;;23.80;99.90;;;;;;5042283;28;20202;-76
2022/07/30 11:48:09;;;;;;;3.75;2.17;;;23.90;99.90;;;;;;5037941;28;20286;-77
2022/07/30 11:50:54;;;;;;;3.65;2.28;;;24.00;99.90;;;;;;5039604;28;20199;-77
2022/07/30 11:53:38;;;;;;;4.32;2.30;;;24.10;99.90;;;;;;5040317;28;20191;-77
2022/07/30 11:56:22;;;;;;;3.13;2.35;;;24.10;99.90;;;;;;5040218;28;20253;-77
2022/07/30 11:59:07;;;;;;;4.60;2.47;;;24.20;99.90;;;;;;5040861;28;20722;-77
2022/07/30 12:01:55;;;;;;;2.83;2.30;;;24.20;99.90;;;;;;5038672;28;20241;-77
2022/07/30 12:04:43;;;;;;;4.47;2.08;;;24.10;99.90;;;;;;5045637;28;20234;-76
2022/07/30 12:07:27;;;;;;;4.90;2.40;;;24.10;99.90;;;;;;5042157;28;20202;-77
2022/07/30 12:10:13;;;;;;;6.65;2.30;;;24.10;99.90;;;;;;5043462;28;20565;-76
2022/07/30 12:13:14;;;;;;;2.72;2.03;;;24.10;99.90;;;;;;5044567;28;20186;-76
2022/07/30 12:15:59;;;;;;;4.82;2.00;;;24.10;99.90;;;;;;5034758;28;20225;-76
2022/07/30 12:18:45;;;;;;;2.60;1.85;;;24.10;99.90;;;;;;5038587;28;20250;-76
2022/07/30 12:21:30;;;;;;;10.55;2.13;;;24.10;99.90;;;;;;5042116;28;20263;-76
2022/07/30 12:24:14;;;;;;;2.20;1.98;;;24.20;99.90;;;;;;5033844;28;20179;-76
2022/07/30 12:27:05;;;;;;;2.40;1.88;;;24.30;99.90;;;;;;5043785;28;20191;-76
2022/07/30 12:29:50;;;;;;;5.32;1.90;;;24.40;99.90;;;;;;5046407;28;20220;-76
2022/07/30 12:32:34;;;;;;;6.28;1.80;;;24.30;99.90;;;;;;5031558;28;20572;-77
2022/07/30 12:35:18;;;;;;;5.28;2.10;;;24.30;99.90;;;;;;5043064;28;20288;-77
2022/07/30 12:38:04;;;;;;;4.60;1.98;;;24.30;99.90;;;;;;5041742;28;20339;-77
2022/07/30 12:40:59;;;;;;;3.13;2.08;;;24.40;99.90;;;;;;5038151;28;20199;-77
2022/07/30 12:43:48;;;;;;;8.18;2.38;;;24.50;99.90;;;;;;5047304;28;20210;-78
2022/07/30 12:46:40;;;;;;;3.67;2.20;;;24.50;99.90;;;;;;5043044;28;20202;-77
2022/07/30 12:49:31;;;;;;;2.75;2.15;;;24.60;99.90;;;;;;5045515;28;20260;-76
2022/07/30 12:52:30;;;;;;;4.43;2.05;;;24.70;99.90;;;;;;5038229;28;20294;-76
2022/07/30 12:55:14;;;;;;;5.13;1.70;;;24.80;99.90;;;;;;5046976;28;20246;-77
2022/07/30 12:58:05;;;;;;;4.85;2.15;;;24.90;99.90;;;;;;5041375;28;20277;-76
2022/07/30 13:00:51;;;;;;;5.30;1.90;;;25.00;99.90;;;;;;5040899;28;20181;-76
2022/07/30 13:03:39;;;;;;;3.60;1.75;;;25.00;99.90;;;;;;5043307;28;20279;-76
2022/07/30 13:06:24;;;;;;;9.63;2.30;;;25.10;99.90;;;;;;5037546;28;20203;-76
2022/07/30 13:09:19;;;;;;;3.53;2.08;;;25.10;99.90;;;;;;5040486;28;20264;-77
2022/07/30 13:12:04;;;;;;;3.13;2.20;;;25.20;99.90;;;;;;5043067;28;20190;-77
2022/07/30 13:14:49;;;;;;;2.50;1.85;;;25.20;99.90;;;;;;5035313;28;20694;-77
2022/07/30 13:17:33;;;;;;;2.70;2.25;;;25.20;99.90;;;;;;5042468;28;20275;-78
2022/07/30 13:20:17;;;;;;;4.60;1.90;;;25.20;99.90;;;;;;5043552;28;20202;-77
2022/07/30 13:23:01;;;;;;;6.30;1.90;;;25.30;99.90;;;;;;5036300;28;20206;-77
2022/07/30 13:25:45;;;;;;;8.20;2.42;;;25.30;99.90;;;;;;5044969;28;20197;-77
2022/07/30 13:28:30;;;;;;;2.65;1.90;;;25.40;99.90;;;;;;5041484;28;20215;-77
2022/07/30 13:31:14;;;;;;;4.30;2.10;;;25.40;99.90;;;;;;5040932;28;20662;-77
2022/07/30 13:33:58;;;;;;;3.25;1.95;;;25.40;99.90;;;;;;5043469;28;20198;-77
2022/07/30 13:36:42;;;;;;;6.75;1.92;;;25.50;99.90;;;;;;5044666;28;20214;-77
2022/07/30 13:39:27;;;;;;;2.88;1.70;;;25.40;99.90;;;;;;5043973;28;20758;-77
2022/07/30 13:42:11;;;;;;;2.22;2.00;;;25.50;99.90;;;;;;5044244;28;20653;-77
2022/07/30 13:44:55;;;;;;;8.85;2.08;;;25.40;99.90;;;;;;5047199;28;20195;-77
2022/07/30 13:47:39;;;;;;;4.93;2.40;;;25.40;99.90;;;;;;5039530;28;20238;-77
2022/07/30 13:50:23;;;;;;;4.03;2.10;;;25.40;99.90;;;;;;5034187;28;20262;-77
2022/07/30 13:53:08;;;;;;;7.70;2.10;;;25.40;99.90;;;;;;5044485;28;20334;-77
2022/07/30 13:55:52;;;;;;;2.78;2.30;;;25.40;99.90;;;;;;5045632;28;20285;-76
2022/07/30 13:58:36;;;;;;;3.90;2.40;;;25.30;99.90;;;;;;5046005;28;20214;-77
2022/07/30 14:01:20;;;;;;;4.15;2.28;;;25.30;99.90;;;;;;5045723;28;20198;-77
2022/07/30 14:04:04;;;;;;;3.80;2.17;;;25.30;99.90;;;;;;5036480;28;20190;-77
2022/07/30 14:06:48;;;;;;;5.97;1.90;;;25.20;99.90;;;;;;5039453;28;20183;-78
2022/07/30 14:09:32;;;;;;;3.67;2.13;;;25.10;99.90;;;;;;5040975;28;20280;-77
2022/07/30 14:12:16;;;;;;;3.53;2.17;;;25.10;99.90;;;;;;5038864;28;20195;-76
2022/07/30 14:15:01;;;;;;;6.00;2.22;;;25.10;99.90;;;;;;5043676;28;20214;-77
2022/07/30 14:17:45;;;;;;;4.05;1.90;;;25.10;99.90;;;;;;5050422;28;20240;-77
2022/07/30 14:20:29;;;;;;;2.20;2.00;;;25.00;99.90;;;;;;5042969;28;20186;-77